Terminal Aerodrome Forecast
Issued by NWS Sioux Falls, SD

Home | Current Version | Previous Version | Graphics & Text | Print | Product List | Glossary Off
Versions: 1 2 3 4 5 6 7 8 9 10 11 12

338
FTUS43 KFSD 290520
TAFHON
TAF
KHON 290520Z 2906/3006 31007KT P6SM SKC
     FM291200 31012KT P6SM SCT050
     FM291400 32016G23KT P6SM BKN050
     FM291600 32018G26KT P6SM BKN050
     FM300100 32011KT P6SM SCT060
     FM300300 31005KT P6SM SCT060=

USA.gov is the U.S. government's official web portal to all federal, state and local government web resources and services.